Time;durP1;ratioP1;P1;durP2;ratioP2;P2;SDS_P1;SDS_P2;PMS_P1;PMS_P2;Temp;Humidity;BMP_temperature;BMP_pressure;BME280_temperature;BME280_humidity;BME280_pressure;Samples;Min_cycle;Max_cycle;Signal;HPM_P1;HPM_P2
2020/12/08 00:02:21;;;;;;;8.23;6.90;;;2.60;99.90;;;;;;5052438;28;20459;-73
2020/12/08 00:04:48;;;;;;;8.37;6.20;;;2.60;99.90;;;;;;5047018;28;20561;-73
2020/12/08 00:07:15;;;;;;;13.23;5.47;;;2.60;99.90;;;;;;5034843;28;20479;-72
2020/12/08 00:09:42;;;;;;;8.40;7.57;;;2.50;99.90;;;;;;5059358;28;20447;-73
2020/12/08 00:12:08;;;;;;;13.47;7.03;;;2.50;99.90;;;;;;5051614;28;20450;-72
2020/12/08 00:14:35;;;;;;;9.77;6.77;;;2.40;99.90;;;;;;5052531;28;20426;-72
2020/12/08 00:17:03;;;;;;;11.93;5.80;;;2.20;99.90;;;;;;5047919;28;20455;-73
2020/12/08 00:19:29;;;;;;;10.47;8.13;;;2.10;99.90;;;;;;5056511;28;20459;-74
2020/12/08 00:21:56;;;;;;;7.20;6.50;;;2.20;99.90;;;;;;5055709;28;20960;-74
2020/12/08 00:24:24;;;;;;;8.03;6.70;;;2.20;99.90;;;;;;5047814;28;20480;-71
2020/12/08 00:26:50;;;;;;;5.90;5.07;;;2.20;99.90;;;;;;5049475;28;20567;-71
2020/12/08 00:29:17;;;;;;;6.43;5.77;;;2.20;99.90;;;;;;5049201;28;20933;-71
2020/12/08 00:31:44;;;;;;;13.40;6.27;;;2.20;99.90;;;;;;5050805;28;20816;-72
2020/12/08 00:34:11;;;;;;;14.97;7.40;;;2.20;99.90;;;;;;5056097;28;20422;-72
2020/12/08 00:36:38;;;;;;;8.83;6.20;;;2.20;99.90;;;;;;5051003;28;20479;-72
2020/12/08 00:39:04;;;;;;;8.27;6.40;;;2.00;99.90;;;;;;5056385;28;20431;-72
2020/12/08 00:41:32;;;;;;;16.20;8.53;;;1.90;99.90;;;;;;5056726;28;20422;-74
2020/12/08 00:43:58;;;;;;;13.70;8.53;;;1.90;99.90;;;;;;5049943;28;20451;-72
2020/12/08 00:46:25;;;;;;;11.87;7.77;;;1.80;99.90;;;;;;5048458;28;20479;-72
2020/12/08 00:48:52;;;;;;;12.10;5.67;;;1.70;99.90;;;;;;5050745;28;20504;-72
2020/12/08 00:51:18;;;;;;;10.20;6.37;;;1.70;99.90;;;;;;5050668;28;20840;-72
2020/12/08 00:53:45;;;;;;;14.43;8.87;;;1.80;99.90;;;;;;5033093;28;20757;-72
2020/12/08 00:56:13;;;;;;;12.57;6.03;;;1.90;99.90;;;;;;5052201;28;20500;-72
2020/12/08 00:58:41;;;;;;;8.27;7.50;;;1.80;99.90;;;;;;5048743;28;20561;-72
2020/12/08 01:01:08;;;;;;;10.57;7.00;;;1.90;99.90;;;;;;5050413;28;20460;-72
2020/12/08 01:03:36;;;;;;;8.93;5.50;;;2.00;99.90;;;;;;5055803;28;20456;-72
2020/12/08 01:06:03;;;;;;;8.00;5.30;;;1.90;99.90;;;;;;5056358;28;20521;-72
2020/12/08 01:08:30;;;;;;;14.63;9.30;;;2.10;99.90;;;;;;5067371;28;20414;-72
2020/12/08 01:10:57;;;;;;;9.30;6.50;;;2.00;99.90;;;;;;5072985;28;20422;-71
2020/12/08 01:13:24;;;;;;;7.53;5.83;;;1.90;99.90;;;;;;5057551;28;20907;-71
2020/12/08 01:15:51;;;;;;;13.53;6.90;;;1.80;99.90;;;;;;5052415;28;20481;-71
2020/12/08 01:18:18;;;;;;;9.90;7.37;;;1.70;99.90;;;;;;5051827;28;20423;-72
2020/12/08 01:20:45;;;;;;;12.20;5.93;;;1.80;99.90;;;;;;5047414;28;20492;-72
2020/12/08 01:23:12;;;;;;;12.23;7.70;;;1.70;99.90;;;;;;5049420;28;20476;-71
2020/12/08 01:25:39;;;;;;;8.97;6.57;;;1.60;99.90;;;;;;5053796;28;21044;-72
2020/12/08 01:28:05;;;;;;;9.30;7.50;;;1.80;99.90;;;;;;5046322;28;20498;-72
2020/12/08 01:30:32;;;;;;;8.03;5.53;;;1.80;99.90;;;;;;5051505;28;20438;-72
2020/12/08 01:32:59;;;;;;;12.13;7.13;;;1.80;99.90;;;;;;5053243;28;20525;-72
2020/12/08 01:35:26;;;;;;;6.33;5.73;;;1.80;99.90;;;;;;5049570;28;20483;-72
2020/12/08 01:37:54;;;;;;;6.70;6.10;;;1.90;99.90;;;;;;5049744;28;20422;-71
2020/12/08 01:40:21;;;;;;;9.70;7.83;;;1.90;99.90;;;;;;5052780;28;20482;-72
2020/12/08 01:42:47;;;;;;;14.90;7.30;;;1.90;99.90;;;;;;5049970;28;20447;-72
2020/12/08 01:45:14;;;;;;;11.20;6.70;;;1.80;99.90;;;;;;5045849;28;20606;-72
2020/12/08 01:47:41;;;;;;;14.53;8.70;;;1.70;99.90;;;;;;5050674;28;20454;-72
2020/12/08 01:50:08;;;;;;;7.80;7.00;;;1.80;99.90;;;;;;5048561;28;20452;-72
2020/12/08 01:52:35;;;;;;;10.63;6.80;;;1.80;99.90;;;;;;5051824;28;20450;-72
2020/12/08 01:55:03;;;;;;;9.73;5.57;;;1.90;99.90;;;;;;5049791;28;20561;-72
2020/12/08 01:57:30;;;;;;;11.57;8.60;;;1.90;99.90;;;;;;5053960;28;20521;-72
2020/12/08 01:59:57;;;;;;;8.00;5.73;;;1.80;99.90;;;;;;5059298;28;20437;-72
2020/12/08 02:02:24;;;;;;;6.60;5.97;;;1.80;99.90;;;;;;5055919;28;20418;-72
2020/12/08 02:04:51;;;;;;;15.50;9.83;;;1.90;99.90;;;;;;5051757;28;20493;-72
2020/12/08 02:07:19;;;;;;;7.10;4.83;;;1.90;99.90;;;;;;5050365;28;20471;-71
2020/12/08 02:09:46;;;;;;;9.37;6.73;;;2.10;99.90;;;;;;5061550;28;20417;-72
2020/12/08 02:12:12;;;;;;;11.80;6.90;;;2.20;99.90;;;;;;5057011;28;20464;-72
2020/12/08 02:14:39;;;;;;;14.87;8.00;;;2.30;99.90;;;;;;5055082;28;20999;-71
2020/12/08 02:17:06;;;;;;;10.73;6.17;;;2.30;99.90;;;;;;5049394;28;20485;-72
2020/12/08 02:19:33;;;;;;;6.73;5.83;;;2.30;99.90;;;;;;5051061;28;20438;-72
2020/12/08 02:22:00;;;;;;;9.90;6.80;;;2.50;99.90;;;;;;5057612;28;20499;-72
2020/12/08 02:24:27;;;;;;;14.60;7.63;;;2.50;99.90;;;;;;5057776;28;21003;-72
2020/12/08 02:26:54;;;;;;;6.40;4.30;;;2.40;99.90;;;;;;5042418;28;20475;-72
2020/12/08 02:29:21;;;;;;;8.93;5.40;;;2.40;99.90;;;;;;5053494;28;20459;-71
2020/12/08 02:31:47;;;;;;;7.80;5.00;;;2.30;99.90;;;;;;5059014;28;20431;-72
2020/12/08 02:34:14;;;;;;;12.07;6.50;;;2.30;99.90;;;;;;5060942;28;20486;-71
2020/12/08 02:36:41;;;;;;;6.90;4.53;;;2.20;99.90;;;;;;5052518;28;20585;-72
2020/12/08 02:39:08;;;;;;;10.17;7.00;;;2.30;99.90;;;;;;5046577;28;21144;-72
2020/12/08 02:41:34;;;;;;;7.50;4.77;;;2.20;99.90;;;;;;5051236;28;20429;-71
2020/12/08 02:44:01;;;;;;;4.30;3.90;;;2.20;99.90;;;;;;5047896;28;20999;-72
2020/12/08 02:46:28;;;;;;;6.67;4.77;;;2.20;99.90;;;;;;5042782;28;20458;-72
2020/12/08 02:48:54;;;;;;;2.70;1.33;;;2.00;99.90;;;;;;5053616;28;20532;-71
2020/12/08 02:51:21;;;;;;;3.43;2.50;;;1.90;99.90;;;;;;5052805;28;20452;-71
2020/12/08 02:53:47;;;;;;;5.80;4.10;;;1.90;99.90;;;;;;5052269;28;20514;-71
2020/12/08 02:56:15;;;;;;;2.60;2.40;;;1.80;99.90;;;;;;5052100;28;20472;-71
2020/12/08 02:58:41;;;;;;;7.67;4.87;;;1.90;99.90;;;;;;5051158;28;20460;-71
2020/12/08 03:01:08;;;;;;;5.03;4.53;;;1.90;99.90;;;;;;5057773;28;20456;-71
2020/12/08 03:03:38;;;;;;;6.13;5.23;;;2.00;99.90;;;;;;5048934;28;20473;-72
2020/12/08 03:06:04;;;;;;;5.17;4.53;;;2.00;99.90;;;;;;5050613;28;20837;-72
2020/12/08 03:08:31;;;;;;;8.10;5.40;;;2.00;99.90;;;;;;5034923;28;21302;-72
2020/12/08 03:10:58;;;;;;;8.23;7.20;;;2.10;99.90;;;;;;5048040;28;20422;-72
2020/12/08 03:13:25;;;;;;;9.90;5.13;;;2.20;99.90;;;;;;5043274;28;20476;-72
2020/12/08 03:15:52;;;;;;;7.30;6.00;;;2.20;99.90;;;;;;5047286;28;20462;-72
2020/12/08 03:18:18;;;;;;;9.10;5.13;;;2.20;99.90;;;;;;5049299;28;20435;-71
2020/12/08 03:20:45;;;;;;;6.13;5.33;;;2.30;99.90;;;;;;5046271;28;20426;-72
2020/12/08 03:23:12;;;;;;;11.00;7.80;;;2.30;99.90;;;;;;5046661;28;20963;-72
2020/12/08 03:25:38;;;;;;;7.73;5.10;;;2.40;99.90;;;;;;5047686;28;20910;-74
2020/12/08 03:28:05;;;;;;;12.60;7.83;;;2.50;99.90;;;;;;5050435;28;20513;-73
2020/12/08 03:30:34;;;;;;;7.00;6.27;;;2.40;99.90;;;;;;5050979;28;20504;-73
2020/12/08 03:33:01;;;;;;;6.23;3.93;;;2.50;99.90;;;;;;5048155;28;20818;-73
2020/12/08 03:35:27;;;;;;;7.67;5.93;;;2.50;99.90;;;;;;5053045;28;20481;-72
2020/12/08 03:37:54;;;;;;;5.70;3.67;;;2.40;99.90;;;;;;5048301;28;20448;-73
2020/12/08 03:40:21;;;;;;;8.30;5.50;;;2.40;99.90;;;;;;5048882;28;20431;-73
2020/12/08 03:42:47;;;;;;;6.80;5.77;;;2.30;99.90;;;;;;5057068;28;20552;-74
2020/12/08 03:45:14;;;;;;;1.77;1.67;;;2.30;99.90;;;;;;5049029;28;20527;-72
2020/12/08 03:47:42;;;;;;;6.27;5.30;;;2.20;99.90;;;;;;5050917;28;20489;-73
2020/12/08 03:50:08;;;;;;;11.43;4.80;;;2.20;99.90;;;;;;5047660;28;20513;-72
2020/12/08 03:52:35;;;;;;;10.93;4.27;;;2.30;99.90;;;;;;5048203;28;20540;-73
2020/12/08 03:55:02;;;;;;;3.07;2.77;;;2.30;99.90;;;;;;5047695;28;20426;-72
2020/12/08 03:57:28;;;;;;;3.47;2.33;;;2.40;99.90;;;;;;5055357;28;20933;-74
2020/12/08 03:59:58;;;;;;;6.33;4.27;;;2.30;99.90;;;;;;5055596;28;20554;-72
2020/12/08 04:02:24;;;;;;;5.83;4.37;;;2.20;99.90;;;;;;5055194;28;20501;-73
2020/12/08 04:04:51;;;;;;;3.87;3.57;;;2.20;99.90;;;;;;5045516;28;20874;-72
2020/12/08 04:07:18;;;;;;;6.53;4.77;;;2.30;99.90;;;;;;5044022;28;21261;-73
2020/12/08 04:09:45;;;;;;;2.67;2.47;;;2.40;99.90;;;;;;5042688;28;20557;-72
2020/12/08 04:12:11;;;;;;;7.50;3.37;;;2.40;99.90;;;;;;5043562;28;20527;-73
2020/12/08 04:14:38;;;;;;;7.47;4.87;;;2.30;99.90;;;;;;5044431;28;20511;-72
2020/12/08 04:17:05;;;;;;;5.60;3.80;;;2.30;99.90;;;;;;5045701;28;20510;-73
2020/12/08 04:19:32;;;;;;;6.70;4.73;;;2.30;99.90;;;;;;5035833;28;20464;-72
2020/12/08 04:22:02;;;;;;;8.53;6.27;;;2.80;99.90;;;;;;5052147;28;20466;-73
2020/12/08 04:24:29;;;;;;;8.83;6.40;;;3.10;99.90;;;;;;5046752;28;20479;-72
2020/12/08 04:26:55;;;;;;;8.97;4.83;;;3.30;99.90;;;;;;5044982;28;20996;-73
2020/12/08 04:29:23;;;;;;;7.40;4.27;;;3.40;99.90;;;;;;5049313;28;20429;-72
2020/12/08 04:31:50;;;;;;;7.43;5.73;;;3.30;99.90;;;;;;5050371;28;20430;-73
2020/12/08 04:34:17;;;;;;;3.70;3.40;;;2.90;99.90;;;;;;5053334;28;20447;-73
2020/12/08 04:36:44;;;;;;;3.63;3.33;;;2.70;99.90;;;;;;5053648;28;20830;-73
2020/12/08 04:39:11;;;;;;;6.70;3.97;;;2.60;99.90;;;;;;5056585;28;20455;-71
2020/12/08 04:41:38;;;;;;;8.23;5.63;;;2.50;99.90;;;;;;5053546;28;20422;-72
2020/12/08 04:44:05;;;;;;;4.83;4.37;;;2.50;99.90;;;;;;5048520;28;20591;-72
2020/12/08 04:46:32;;;;;;;8.00;7.20;;;2.50;99.90;;;;;;5049834;28;20472;-72
2020/12/08 04:49:00;;;;;;;9.30;7.83;;;2.60;99.90;;;;;;5048484;28;20427;-72
2020/12/08 04:51:26;;;;;;;6.67;3.73;;;2.60;99.90;;;;;;5046423;28;20469;-72
2020/12/08 04:53:53;;;;;;;5.17;4.67;;;2.60;99.90;;;;;;5049034;28;20972;-72
2020/12/08 04:56:21;;;;;;;8.63;5.97;;;2.50;99.90;;;;;;5048933;28;20480;-73
2020/12/08 04:58:48;;;;;;;5.77;4.60;;;2.50;99.90;;;;;;5049293;28;20458;-73
2020/12/08 05:01:25;;;;;;;7.50;6.17;;;2.60;99.90;;;;;;5037338;28;20484;-71
2020/12/08 05:03:59;;;;;;;7.93;6.00;;;2.60;99.90;;;;;;5049444;28;20972;-72
2020/12/08 05:06:26;;;;;;;6.10;4.20;;;2.70;99.90;;;;;;5050988;28;20450;-72
2020/12/08 05:09:06;;;;;;;8.57;7.03;;;2.70;99.90;;;;;;5049476;28;20431;-72
2020/12/08 05:11:34;;;;;;;12.70;5.87;;;2.90;99.90;;;;;;5051751;28;20495;-72
2020/12/08 05:14:02;;;;;;;12.60;8.40;;;3.00;99.90;;;;;;5050393;28;20449;-73
2020/12/08 05:16:29;;;;;;;8.20;6.37;;;3.00;99.90;;;;;;5050749;28;20532;-73
2020/12/08 05:19:06;;;;;;;10.70;8.93;;;3.00;99.90;;;;;;5049512;28;20533;-71
2020/12/08 05:21:33;;;;;;;8.67;6.97;;;3.00;99.90;;;;;;5061731;28;20538;-71
2020/12/08 05:24:00;;;;;;;9.20;7.70;;;3.10;99.90;;;;;;5051473;28;20453;-73
2020/12/08 05:26:28;;;;;;;8.27;5.77;;;3.10;99.90;;;;;;5050310;28;20454;-72
2020/12/08 05:29:01;;;;;;;8.10;6.10;;;3.20;99.90;;;;;;5042829;28;20452;-72
2020/12/08 05:31:30;;;;;;;13.10;8.40;;;3.10;99.90;;;;;;5051251;28;20463;-73
2020/12/08 05:33:59;;;;;;;9.77;5.90;;;3.10;99.90;;;;;;5046476;28;20569;-73
2020/12/08 05:36:29;;;;;;;10.83;6.17;;;3.20;99.90;;;;;;5056341;28;20576;-73
2020/12/08 05:39:00;;;;;;;6.27;4.90;;;3.20;99.90;;;;;;5050266;28;20496;-72
2020/12/08 05:41:31;;;;;;;10.20;7.20;;;3.10;99.90;;;;;;5045785;28;20974;-72
2020/12/08 05:44:05;;;;;;;7.50;6.53;;;3.00;99.90;;;;;;5046144;28;21032;-73
2020/12/08 05:46:41;;;;;;;5.40;5.00;;;3.00;99.90;;;;;;5034791;28;21303;-73
2020/12/08 05:49:11;;;;;;;7.40;5.77;;;3.10;99.90;;;;;;5042471;28;20450;-72
2020/12/08 05:51:42;;;;;;;12.33;8.47;;;3.10;99.90;;;;;;5047112;28;20459;-71
2020/12/08 05:54:16;;;;;;;10.17;6.37;;;3.10;99.90;;;;;;5052176;28;20464;-72
2020/12/08 05:56:43;;;;;;;14.07;6.13;;;3.10;99.90;;;;;;5047168;28;20943;-72
2020/12/08 05:59:11;;;;;;;13.40;7.57;;;3.20;99.90;;;;;;5048895;28;20483;-73
2020/12/08 06:01:48;;;;;;;5.03;3.90;;;3.10;99.90;;;;;;5046271;28;20517;-72
2020/12/08 06:04:14;;;;;;;7.50;5.17;;;3.10;99.90;;;;;;5046698;28;20466;-73
2020/12/08 06:06:48;;;;;;;10.37;5.77;;;3.00;99.90;;;;;;5057902;28;20582;-72
2020/12/08 06:09:23;;;;;;;7.80;6.17;;;3.00;99.90;;;;;;5056787;28;20496;-72
2020/12/08 06:11:50;;;;;;;9.53;6.13;;;3.00;99.90;;;;;;5054622;28;20456;-73
2020/12/08 06:14:32;;;;;;;9.33;5.33;;;3.00;99.90;;;;;;5047496;28;20426;-72
2020/12/08 06:17:03;;;;;;;12.53;6.03;;;3.00;99.90;;;;;;5051113;28;20483;-72
2020/12/08 06:19:30;;;;;;;13.80;5.70;;;3.10;99.90;;;;;;5052239;28;21313;-72
2020/12/08 06:21:58;;;;;;;11.20;5.90;;;3.10;99.90;;;;;;5056497;28;20446;-72
2020/12/08 06:24:24;;;;;;;8.80;6.63;;;3.10;99.90;;;;;;5054405;28;20483;-75
2020/12/08 06:26:51;;;;;;;8.97;6.37;;;3.10;99.90;;;;;;5050961;28;20454;-71
2020/12/08 06:29:20;;;;;;;8.80;6.80;;;3.20;99.90;;;;;;5060293;28;20483;-73
2020/12/08 06:31:48;;;;;;;6.90;5.60;;;3.20;99.90;;;;;;5053718;28;20418;-73
2020/12/08 06:34:25;;;;;;;8.20;4.93;;;3.30;99.90;;;;;;5061844;28;20500;-73
2020/12/08 06:36:52;;;;;;;8.10;4.57;;;3.30;99.90;;;;;;5053591;28;20462;-74
2020/12/08 06:39:21;;;;;;;6.77;5.80;;;3.30;99.90;;;;;;5057759;28;21040;-73
2020/12/08 06:41:48;;;;;;;12.17;8.07;;;3.30;99.90;;;;;;5051500;28;20533;-72
2020/12/08 06:44:16;;;;;;;7.50;5.87;;;3.20;99.90;;;;;;5057398;28;20494;-72
2020/12/08 06:46:54;;;;;;;7.80;4.50;;;3.20;99.90;;;;;;5051588;28;20454;-72
2020/12/08 06:49:20;;;;;;;12.70;9.97;;;3.20;99.90;;;;;;5068499;28;20483;-73
2020/12/08 06:51:54;;;;;;;9.07;6.63;;;3.30;99.90;;;;;;5054006;28;20831;-73
2020/12/08 06:54:21;;;;;;;7.20;5.80;;;3.30;99.90;;;;;;5060370;28;20459;-73
2020/12/08 06:56:47;;;;;;;9.27;5.70;;;3.40;99.90;;;;;;5061305;28;20524;-72
2020/12/08 06:59:22;;;;;;;10.47;6.90;;;3.20;99.90;;;;;;5048815;28;20844;-72
2020/12/08 07:01:50;;;;;;;7.77;5.10;;;3.30;99.90;;;;;;5053524;28;20534;-73
2020/12/08 07:04:18;;;;;;;8.50;6.10;;;3.30;99.90;;;;;;5053497;28;20476;-72
2020/12/08 07:06:45;;;;;;;6.77;5.23;;;3.30;99.90;;;;;;5050657;28;20533;-73
2020/12/08 07:09:12;;;;;;;10.90;6.50;;;3.30;99.90;;;;;;5053625;28;20534;-73
2020/12/08 07:11:39;;;;;;;11.57;4.70;;;3.30;99.90;;;;;;5056972;28;20427;-73
2020/12/08 07:14:06;;;;;;;4.70;3.90;;;3.20;99.90;;;;;;5056370;28;20804;-73
2020/12/08 07:16:34;;;;;;;8.73;6.30;;;3.20;99.90;;;;;;5058750;28;20465;-73
2020/12/08 07:19:02;;;;;;;4.63;4.20;;;3.20;99.90;;;;;;5060698;28;20414;-73
2020/12/08 07:21:30;;;;;;;6.73;5.40;;;3.30;99.90;;;;;;5071344;28;20506;-72
2020/12/08 07:23:57;;;;;;;8.70;5.53;;;3.40;99.90;;;;;;5060553;28;20449;-73
2020/12/08 07:26:25;;;;;;;21.33;6.30;;;3.50;99.90;;;;;;5057085;28;20921;-73
2020/12/08 07:28:52;;;;;;;6.93;4.70;;;3.50;99.90;;;;;;5050583;28;20431;-72
2020/12/08 07:31:20;;;;;;;7.03;6.43;;;3.30;99.90;;;;;;5056677;28;20435;-73
2020/12/08 07:33:47;;;;;;;11.07;5.40;;;3.30;99.90;;;;;;5053774;28;20498;-73
2020/12/08 07:36:27;;;;;;;12.93;8.10;;;3.30;99.90;;;;;;5055008;28;20454;-72
2020/12/08 07:38:56;;;;;;;9.93;6.70;;;3.30;99.90;;;;;;5058794;28;20461;-73
2020/12/08 07:41:25;;;;;;;6.47;4.77;;;3.40;99.90;;;;;;5054710;28;20447;-73
2020/12/08 07:43:52;;;;;;;8.87;7.27;;;3.40;99.90;;;;;;5049547;28;20824;-73
2020/12/08 07:46:23;;;;;;;7.40;6.70;;;3.40;99.90;;;;;;5051422;28;20457;-73
2020/12/08 07:49:01;;;;;;;10.27;7.43;;;3.40;99.90;;;;;;5049528;28;20422;-73
2020/12/08 07:51:28;;;;;;;9.33;7.30;;;3.40;99.90;;;;;;5053520;28;20569;-72
2020/12/08 07:53:55;;;;;;;8.57;5.90;;;3.50;99.90;;;;;;5052292;28;20448;-73
2020/12/08 07:56:25;;;;;;;14.47;8.83;;;3.60;99.90;;;;;;5058849;28;20457;-72
2020/12/08 07:58:52;;;;;;;12.63;9.73;;;3.60;99.90;;;;;;5049198;28;20464;-73
2020/12/08 08:01:19;;;;;;;13.67;8.50;;;3.70;99.90;;;;;;5048292;28;20821;-73
2020/12/08 08:03:45;;;;;;;22.73;9.37;;;3.80;99.90;;;;;;5056469;28;20444;-73
2020/12/08 08:06:13;;;;;;;12.57;8.80;;;3.80;99.90;;;;;;5050196;28;20538;-73
2020/12/08 08:08:40;;;;;;;12.67;9.07;;;3.90;99.90;;;;;;5049920;28;20426;-73
2020/12/08 08:11:07;;;;;;;11.30;6.90;;;3.90;99.90;;;;;;5056776;28;20440;-73
2020/12/08 08:13:34;;;;;;;10.57;7.63;;;4.00;99.90;;;;;;5059585;28;20462;-72
2020/12/08 08:16:01;;;;;;;14.43;8.60;;;3.90;99.90;;;;;;5053269;28;20486;-73
2020/12/08 08:18:28;;;;;;;10.47;7.10;;;4.00;99.90;;;;;;5052591;28;20476;-73
2020/12/08 08:20:54;;;;;;;9.47;7.60;;;3.90;99.90;;;;;;5056927;28;20463;-73
2020/12/08 08:23:21;;;;;;;12.60;9.10;;;3.90;99.90;;;;;;5062336;28;20475;-73
2020/12/08 08:25:48;;;;;;;14.07;9.37;;;3.90;99.90;;;;;;5054652;28;20480;-73
2020/12/08 08:28:15;;;;;;;15.80;7.23;;;4.00;99.90;;;;;;5042699;28;20497;-73
2020/12/08 08:30:42;;;;;;;14.37;7.63;;;4.10;99.90;;;;;;5068369;28;20505;-72
2020/12/08 08:33:09;;;;;;;14.60;9.50;;;3.90;99.90;;;;;;5064625;28;20467;-73
2020/12/08 08:35:35;;;;;;;16.67;7.53;;;3.90;99.90;;;;;;5050730;28;20939;-72
2020/12/08 08:38:03;;;;;;;21.10;12.53;;;3.90;99.90;;;;;;5055128;28;20500;-73
2020/12/08 08:40:30;;;;;;;14.37;7.87;;;4.10;99.90;;;;;;5038650;28;20516;-73
2020/12/08 08:42:57;;;;;;;14.93;8.10;;;4.10;99.90;;;;;;5056813;28;20490;-73
2020/12/08 08:45:24;;;;;;;10.10;8.27;;;4.00;99.90;;;;;;5057538;28;20457;-73
2020/12/08 08:47:51;;;;;;;15.50;10.20;;;4.20;99.90;;;;;;5063308;28;20556;-73
2020/12/08 08:50:17;;;;;;;20.63;12.27;;;4.40;99.90;;;;;;5051357;28;20449;-73
2020/12/08 08:52:44;;;;;;;11.90;8.20;;;4.40;99.90;;;;;;5057978;28;20884;-73
2020/12/08 08:55:11;;;;;;;20.53;9.20;;;4.40;99.90;;;;;;5054011;28;20860;-72
2020/12/08 08:57:38;;;;;;;23.70;11.30;;;4.50;99.90;;;;;;5053964;28;20468;-71
2020/12/08 09:00:06;;;;;;;11.37;9.47;;;4.60;99.90;;;;;;5055670;28;20508;-72
2020/12/08 09:02:34;;;;;;;13.27;10.27;;;4.60;99.90;;;;;;5051966;28;20496;-72
2020/12/08 09:05:01;;;;;;;14.97;10.37;;;4.70;99.90;;;;;;5053491;28;20491;-71
2020/12/08 09:07:29;;;;;;;15.73;9.40;;;4.70;99.90;;;;;;5053057;28;20567;-72
2020/12/08 09:09:55;;;;;;;16.07;10.10;;;4.80;99.90;;;;;;5059014;28;20531;-72
2020/12/08 09:12:22;;;;;;;15.37;8.40;;;4.70;99.90;;;;;;5055290;28;20838;-71
2020/12/08 09:14:50;;;;;;;14.40;9.43;;;4.80;99.90;;;;;;5059870;28;21223;-72
2020/12/08 09:17:17;;;;;;;14.83;8.20;;;4.80;99.90;;;;;;5055700;28;20474;-70
2020/12/08 09:19:45;;;;;;;21.30;10.80;;;4.80;99.90;;;;;;5058020;28;20502;-72
2020/12/08 09:22:11;;;;;;;14.70;9.47;;;4.80;99.90;;;;;;5064632;28;20437;-72
2020/12/08 09:24:38;;;;;;;13.27;7.80;;;4.80;99.90;;;;;;5061606;28;20798;-71
2020/12/08 09:27:06;;;;;;;12.90;8.47;;;4.80;99.90;;;;;;5051663;28;20567;-71
2020/12/08 09:29:33;;;;;;;21.07;11.50;;;4.80;99.90;;;;;;5068736;28;20441;-72
2020/12/08 09:32:00;;;;;;;17.73;10.43;;;4.90;99.90;;;;;;5059468;28;20460;-72
2020/12/08 09:34:28;;;;;;;17.20;10.37;;;4.90;99.90;;;;;;5061852;28;20492;-72
2020/12/08 09:36:57;;;;;;;17.50;11.20;;;5.00;99.90;;;;;;5067406;28;20470;-72
2020/12/08 09:39:24;;;;;;;15.40;10.67;;;5.00;99.90;;;;;;5066097;28;20521;-72
2020/12/08 09:41:51;;;;;;;14.70;9.20;;;5.10;99.90;;;;;;5072781;28;20474;-71
2020/12/08 09:44:18;;;;;;;15.10;8.47;;;5.30;99.90;;;;;;5067516;28;20794;-72
2020/12/08 09:46:45;;;;;;;17.77;9.80;;;5.40;99.90;;;;;;5061105;28;21040;-72
2020/12/08 09:49:14;;;;;;;23.40;11.60;;;5.50;99.90;;;;;;5065831;28;20858;-71
2020/12/08 09:51:41;;;;;;;16.20;8.43;;;5.20;99.90;;;;;;5050307;28;20502;-72
2020/12/08 09:54:08;;;;;;;14.37;9.50;;;5.10;99.90;;;;;;5055476;28;20463;-72
2020/12/08 09:56:35;;;;;;;18.40;10.97;;;5.00;99.90;;;;;;5060813;28;20499;-72
2020/12/08 09:59:01;;;;;;;19.43;11.87;;;5.10;99.90;;;;;;5056437;28;20442;-72
2020/12/08 10:01:29;;;;;;;13.80;9.60;;;5.00;99.90;;;;;;5065726;28;20502;-71
2020/12/08 10:03:56;;;;;;;13.87;8.57;;;5.00;99.90;;;;;;5061171;28;20451;-71
2020/12/08 10:06:22;;;;;;;16.33;10.30;;;4.90;99.90;;;;;;5056703;28;20479;-73
2020/12/08 10:08:49;;;;;;;20.63;13.27;;;5.00;99.90;;;;;;5065508;28;20917;-71
2020/12/08 10:11:17;;;;;;;13.97;10.87;;;5.10;99.90;;;;;;5065810;28;20415;-72
2020/12/08 10:13:43;;;;;;;16.13;9.27;;;5.10;99.90;;;;;;5068796;28;20442;-72
2020/12/08 10:16:10;;;;;;;20.73;11.93;;;5.20;99.90;;;;;;5062717;28;20488;-73
2020/12/08 10:18:38;;;;;;;18.53;10.40;;;5.20;99.90;;;;;;5067745;28;20445;-72
2020/12/08 10:21:05;;;;;;;18.00;9.67;;;5.30;99.90;;;;;;5053817;28;20927;-71
2020/12/08 10:23:31;;;;;;;12.93;9.23;;;5.20;99.90;;;;;;5057359;28;20926;-72
2020/12/08 10:25:58;;;;;;;19.93;10.70;;;5.40;99.90;;;;;;5059638;28;20486;-71
2020/12/08 10:28:25;;;;;;;12.13;7.73;;;5.40;99.90;;;;;;5061325;28;20457;-72
2020/12/08 10:30:52;;;;;;;17.13;9.73;;;5.30;99.90;;;;;;5067050;28;20536;-73
2020/12/08 10:33:18;;;;;;;20.60;10.63;;;5.10;99.90;;;;;;5068292;28;20522;-72
2020/12/08 10:35:45;;;;;;;12.97;8.93;;;5.10;99.90;;;;;;5062700;28;20941;-72
2020/12/08 10:38:13;;;;;;;19.23;10.13;;;5.00;99.90;;;;;;5066712;28;20443;-72
2020/12/08 10:40:39;;;;;;;15.70;10.77;;;4.90;99.90;;;;;;5070703;28;20460;-72
2020/12/08 10:43:06;;;;;;;27.13;11.90;;;5.00;99.90;;;;;;5067871;28;20434;-73
2020/12/08 10:45:33;;;;;;;22.63;11.80;;;5.10;99.90;;;;;;5066620;28;20555;-72
2020/12/08 10:48:00;;;;;;;18.47;10.80;;;5.10;99.90;;;;;;5070314;28;20442;-72
2020/12/08 10:50:27;;;;;;;16.13;10.87;;;5.20;99.90;;;;;;5061702;28;20488;-71
2020/12/08 10:52:53;;;;;;;21.83;12.10;;;5.20;99.90;;;;;;5053420;28;20439;-72
2020/12/08 10:55:21;;;;;;;21.07;12.33;;;5.20;99.90;;;;;;5058869;28;20495;-73
2020/12/08 10:57:48;;;;;;;14.70;10.73;;;5.30;99.90;;;;;;5062023;28;21017;-73
2020/12/08 11:00:15;;;;;;;18.07;11.10;;;5.40;99.90;;;;;;5069898;28;20475;-72
2020/12/08 11:02:42;;;;;;;16.00;11.40;;;5.40;99.90;;;;;;5068200;28;20497;-72
2020/12/08 11:05:09;;;;;;;15.77;9.63;;;5.30;99.90;;;;;;5058482;28;20479;-71
2020/12/08 11:07:36;;;;;;;18.00;12.10;;;5.30;99.90;;;;;;5048177;28;20528;-71
2020/12/08 11:10:03;;;;;;;21.30;11.57;;;5.40;99.90;;;;;;5046587;28;20952;-72
2020/12/08 11:12:29;;;;;;;24.50;11.20;;;5.60;99.90;;;;;;5066600;28;20480;-72
2020/12/08 11:14:56;;;;;;;22.83;10.90;;;5.70;99.90;;;;;;5064679;28;20943;-72
2020/12/08 11:17:23;;;;;;;19.47;10.87;;;5.80;99.90;;;;;;5055902;28;20510;-72
2020/12/08 11:19:50;;;;;;;20.30;10.10;;;6.00;99.90;;;;;;5062752;28;20452;-72
2020/12/08 11:22:17;;;;;;;16.83;10.77;;;6.20;99.90;;;;;;5066356;28;20419;-72
2020/12/08 11:24:43;;;;;;;18.10;10.77;;;6.20;99.90;;;;;;5054256;28;20483;-72
2020/12/08 11:27:14;;;;;;;14.93;9.60;;;6.20;99.90;;;;;;5052900;28;20507;-72
2020/12/08 11:29:40;;;;;;;16.73;11.63;;;6.00;99.90;;;;;;5056888;28;20441;-72
2020/12/08 11:32:07;;;;;;;15.77;10.30;;;6.00;99.90;;;;;;5067087;28;20459;-71
2020/12/08 11:34:34;;;;;;;16.47;9.50;;;5.80;99.90;;;;;;5061614;28;20894;-71
2020/12/08 11:37:02;;;;;;;19.27;12.27;;;5.80;99.90;;;;;;5047197;28;20482;-71
2020/12/08 11:39:28;;;;;;;16.20;10.00;;;5.90;99.90;;;;;;5065972;28;20538;-72
2020/12/08 11:41:55;;;;;;;19.97;13.53;;;6.00;99.90;;;;;;5054008;28;21120;-73
2020/12/08 11:44:21;;;;;;;15.63;12.87;;;6.10;99.90;;;;;;5058586;28;20561;-72
2020/12/08 11:46:51;;;;;;;16.13;11.00;;;6.00;99.90;;;;;;5059329;28;20491;-73
2020/12/08 11:49:18;;;;;;;20.70;12.30;;;6.30;99.90;;;;;;5050378;28;20480;-72
2020/12/08 11:51:45;;;;;;;15.30;9.20;;;6.30;99.90;;;;;;5058272;28;20538;-72
2020/12/08 11:54:13;;;;;;;21.57;9.40;;;6.20;99.90;;;;;;5067246;28;20449;-72
2020/12/08 11:56:39;;;;;;;21.80;12.97;;;6.10;99.90;;;;;;5062486;28;20644;-72
2020/12/08 11:59:06;;;;;;;15.40;10.67;;;6.20;99.90;;;;;;5053930;28;20437;-72
2020/12/08 12:01:33;;;;;;;23.47;11.27;;;6.20;99.90;;;;;;5061667;28;20427;-72
2020/12/08 12:03:59;;;;;;;24.20;12.37;;;6.20;99.90;;;;;;5054263;28;20463;-71
2020/12/08 12:06:26;;;;;;;22.33;11.00;;;6.20;99.90;;;;;;5065180;28;20977;-72
2020/12/08 12:08:53;;;;;;;19.07;10.60;;;6.30;99.90;;;;;;5071129;28;20795;-72
2020/12/08 12:11:20;;;;;;;14.53;10.13;;;6.30;99.90;;;;;;5054456;28;20455;-72
2020/12/08 12:13:47;;;;;;;17.40;11.57;;;6.20;99.90;;;;;;5065468;28;20951;-72
2020/12/08 12:16:14;;;;;;;15.90;10.20;;;6.10;99.90;;;;;;5064615;28;20475;-73
2020/12/08 12:18:41;;;;;;;20.00;8.80;;;6.20;99.90;;;;;;5064283;28;20491;-73
2020/12/08 12:21:08;;;;;;;11.60;8.87;;;6.30;99.90;;;;;;5055787;28;20886;-74
2020/12/08 12:23:35;;;;;;;17.27;12.07;;;6.20;99.90;;;;;;5067391;28;20417;-75
2020/12/08 12:26:01;;;;;;;21.97;11.53;;;6.20;99.90;;;;;;5064656;28;20480;-72
2020/12/08 12:28:29;;;;;;;15.70;10.87;;;6.20;99.90;;;;;;5072430;28;20506;-72
2020/12/08 12:30:56;;;;;;;17.87;10.40;;;6.00;99.90;;;;;;5071987;28;20454;-72
2020/12/08 12:33:22;;;;;;;18.80;10.97;;;5.90;99.90;;;;;;5064709;28;20857;-73
2020/12/08 12:35:49;;;;;;;19.37;11.20;;;5.90;99.90;;;;;;5029877;28;20533;-72
2020/12/08 12:38:16;;;;;;;14.23;9.53;;;6.00;99.90;;;;;;5054033;28;20526;-72
2020/12/08 12:40:42;;;;;;;15.87;10.07;;;6.00;99.90;;;;;;5063350;28;20501;-72
2020/12/08 12:43:09;;;;;;;15.47;10.60;;;5.90;99.90;;;;;;5063665;28;20439;-72
2020/12/08 12:45:36;;;;;;;14.60;8.17;;;6.00;99.90;;;;;;5061434;28;20858;-72
2020/12/08 12:48:04;;;;;;;16.90;9.90;;;6.00;99.90;;;;;;5064460;28;20450;-72
2020/12/08 12:50:30;;;;;;;17.57;9.77;;;6.00;99.90;;;;;;5061863;28;20425;-72